Time;durP1;ratioP1;P1;durP2;ratioP2;P2;SDS_P1;SDS_P2;PMS_P1;PMS_P2;Temp;Humidity;BMP_temperature;BMP_pressure;BME280_temperature;BME280_humidity;BME280_pressure;Samples;Min_cycle;Max_cycle;Signal;HPM_P1;HPM_P2
2023/04/24 00:02:10;;;;;;;5.60;4.30;;;;;;;6.83;78.25;96950.47;110414;1242;59681;-71
2023/04/24 00:04:44;;;;;;;5.90;4.80;;;;;;;6.80;77.31;96953.25;110426;1242;70817;-72
2023/04/24 00:07:16;;;;;;;5.70;4.50;;;;;;;6.78;77.25;96954.21;110497;1246;68433;-72
2023/04/24 00:09:47;;;;;;;7.40;4.90;;;;;;;6.77;77.65;96952.77;110277;1241;69282;-72
2023/04/24 00:12:16;;;;;;;;;;;;;;;6.74;78.56;96948.09;110465;1241;59636;-72
2023/04/24 00:14:47;;;;;;;7.80;4.90;;;;;;;6.70;79.97;96943.70;110471;1241;59702;-72
2023/04/24 00:17:19;;;;;;;5.50;4.90;;;;;;;6.67;80.87;96937.65;110428;1241;71402;-72
2023/04/24 00:19:58;;;;;;;7.10;6.20;;;;;;;6.62;80.15;96938.27;110357;1241;68487;-71
2023/04/24 00:22:29;;;;;;;7.80;6.20;;;;;;;6.57;78.20;96939.83;110415;1241;69308;-72
2023/04/24 00:25:03;;;;;;;6.60;5.70;;;;;;;6.51;80.03;96938.13;110432;1242;60065;-72
2023/04/24 00:27:35;;;;;;;6.50;5.00;;;;;;;6.46;81.53;96937.23;110210;1242;59677;-72
2023/04/24 00:30:07;;;;;;;6.90;5.00;;;;;;;6.41;80.67;96936.90;110225;1242;70423;-72
2023/04/24 00:32:38;;;;;;;8.20;5.70;;;;;;;6.37;81.53;96936.06;110141;1245;69246;-72
2023/04/24 00:35:08;;;;;;;6.90;4.60;;;;;;;6.34;80.68;96936.27;110083;1241;69289;-72
2023/04/24 00:37:39;;;;;;;;;;;;;;;6.33;81.34;96932.91;110108;1244;59689;-72
2023/04/24 00:40:12;;;;;;;6.40;5.50;;;;;;;6.34;81.14;96932.29;110241;1242;59715;-71
2023/04/24 00:42:43;;;;;;;6.30;5.10;;;;;;;6.37;81.73;96934.69;110084;1245;70450;-71
2023/04/24 00:45:15;;;;;;;6.00;5.30;;;;;;;6.34;81.42;96934.69;110145;1244;69734;-71
2023/04/24 00:47:46;;;;;;;7.90;6.80;;;;;;;6.28;83.37;96933.54;110183;1243;69275;-71
2023/04/24 00:50:17;;;;;;;8.10;6.30;;;;;;;6.19;82.54;96930.50;110194;1243;59740;-71
2023/04/24 00:52:49;;;;;;;6.70;6.00;;;;;;;6.08;81.96;96931.83;110261;1243;59630;-71
2023/04/24 00:55:20;;;;;;;7.50;6.00;;;;;;;6.01;82.49;96925.73;110260;1241;71777;-71
2023/04/24 00:57:51;;;;;;;6.60;5.70;;;;;;;5.99;83.85;96925.49;111168;1242;69224;-72
2023/04/24 01:00:22;;;;;;;6.90;5.50;;;;;;;6.00;84.28;96922.51;110648;1243;68560;-71
2023/04/24 01:02:54;;;;;;;7.10;5.60;;;;;;;6.03;84.54;96922.84;110351;1242;59734;-71
2023/04/24 01:05:29;;;;;;;7.00;6.30;;;;;;;6.07;83.56;96918.22;110262;1241;59671;-71
2023/04/24 01:08:03;;;;;;;6.40;5.60;;;;;;;6.14;83.60;96919.55;110204;1244;71353;-72
2023/04/24 01:10:35;;;;;;;5.70;5.20;;;;;;;6.19;83.46;96916.67;110199;1245;69236;-71
2023/04/24 01:13:11;;;;;;;7.90;5.20;;;;;;;6.24;82.58;96913.39;110211;1241;67528;-71
2023/04/24 01:15:47;;;;;;;5.60;4.90;;;;;;;6.30;83.59;96909.91;110182;1243;59709;-72
2023/04/24 01:18:21;;;;;;;;;;;;;;;6.33;83.28;96908.66;110217;1242;59678;-72
2023/04/24 01:20:59;;;;;;;5.40;4.10;;;;;;;6.32;82.46;96902.64;110190;1242;71434;-72
2023/04/24 01:23:34;;;;;;;6.90;4.40;;;;;;;6.30;81.44;96903.13;110213;1242;68808;-72
2023/04/24 01:26:09;;;;;;;6.60;5.40;;;;;;;6.28;81.74;96897.71;110308;1245;69332;-73
2023/04/24 01:28:43;;;;;;;5.80;4.70;;;;;;;6.28;82.82;96903.27;110429;1242;59748;-73
2023/04/24 01:31:17;;;;;;;6.10;4.60;;;;;;;6.25;83.10;96908.14;110401;1241;59753;-72
2023/04/24 01:33:55;;;;;;;6.10;5.10;;;;;;;6.18;82.92;96901.30;110429;1242;70429;-71
2023/04/24 01:36:33;;;;;;;5.90;5.10;;;;;;;6.11;81.46;96903.61;110196;1244;69090;-71
2023/04/24 01:39:05;;;;;;;5.80;4.80;;;;;;;6.05;82.04;96899.35;110172;1240;69866;-71
2023/04/24 01:41:38;;;;;;;6.70;4.90;;;;;;;5.99;80.46;96896.94;110380;1242;59688;-72
2023/04/24 01:44:12;;;;;;;5.90;5.00;;;;;;;5.96;80.26;96897.16;110429;1242;59685;-74
2023/04/24 01:46:46;;;;;;;6.20;4.70;;;;;;;5.96;80.87;96895.40;110500;1242;72015;-72
2023/04/24 01:49:19;;;;;;;6.50;5.80;;;;;;;5.98;81.25;96894.96;110426;1242;68561;-72
2023/04/24 01:51:49;;;;;;;5.50;4.90;;;;;;;5.98;81.46;96891.47;110091;1243;69570;-71
2023/04/24 01:54:19;;;;;;;7.20;5.50;;;;;;;5.96;81.49;96888.31;110461;1242;59654;-73
2023/04/24 01:56:54;;;;;;;6.10;5.50;;;;;;;5.90;82.89;96885.73;110481;1240;59689;-73
2023/04/24 01:59:30;;;;;;;8.30;5.70;;;;;;;5.84;82.45;96886.81;110388;1242;70839;-74
2023/04/24 02:02:00;;;;;;;5.50;4.70;;;;;;;5.78;82.13;96880.77;110384;1240;69273;-72
2023/04/24 02:04:31;;;;;;;5.90;5.30;;;;;;;5.73;82.32;96881.10;111102;1242;68535;-72
2023/04/24 02:07:03;;;;;;;6.90;5.20;;;;;;;5.69;82.19;96879.45;110542;1242;59663;-73
2023/04/24 02:09:36;;;;;;;7.40;5.60;;;;;;;5.66;81.69;96880.15;110493;1242;59690;-71
2023/04/24 02:12:10;;;;;;;5.20;4.70;;;;;;;5.60;81.64;96878.73;110417;1242;70590;-71
2023/04/24 02:14:43;;;;;;;7.20;5.30;;;;;;;5.55;82.11;96879.58;110512;1242;69257;-72
2023/04/24 02:17:16;;;;;;;6.60;5.50;;;;;;;5.50;80.46;96881.46;110198;1245;69921;-73
2023/04/24 02:19:50;;;;;;;8.40;6.70;;;;;;;5.44;79.89;96882.53;110099;1241;59691;-73
2023/04/24 02:22:20;;;;;;;7.10;5.20;;;;;;;5.39;80.54;96882.98;110298;1242;59743;-71
2023/04/24 02:24:54;;;;;;;7.40;6.00;;;;;;;5.34;80.73;96881.19;110140;1245;70703;-71
2023/04/24 02:27:25;;;;;;;6.70;5.30;;;;;;;5.30;82.69;96876.62;110449;1242;68488;-71
2023/04/24 02:29:57;;;;;;;7.10;5.70;;;;;;;5.28;83.01;96874.85;110379;1241;68579;-71
2023/04/24 02:32:30;;;;;;;6.80;5.40;;;;;;;5.26;83.78;96873.91;110283;1241;59756;-71
2023/04/24 02:35:04;;;;;;;6.20;5.30;;;;;;;5.21;82.92;96871.79;110320;1242;59696;-71
2023/04/24 02:37:38;;;;;;;6.70;5.60;;;;;;;5.16;81.87;96871.21;110441;1242;71372;-73
2023/04/24 02:40:15;;;;;;;5.50;5.00;;;;;;;5.13;81.89;96870.20;110349;1242;68621;-73
2023/04/24 02:42:46;;;;;;;7.70;6.00;;;;;;;5.14;81.55;96868.28;110308;1242;69254;-73
2023/04/24 02:45:17;;;;;;;6.50;5.40;;;;;;;5.14;82.16;96869.66;110356;1242;59692;-70
2023/04/24 02:47:46;;;;;;;6.30;4.90;;;;;;;5.14;83.07;96866.53;110150;1241;59790;-72
2023/04/24 02:50:16;;;;;;;5.20;4.70;;;;;;;5.15;83.05;96867.14;110474;1242;71383;-73
2023/04/24 02:52:46;;;;;;;5.40;4.30;;;;;;;5.17;83.11;96865.48;110303;1242;69067;-70
2023/04/24 02:55:16;;;;;;;6.30;5.00;;;;;;;5.16;82.56;96866.40;110322;1241;69044;-71
2023/04/24 02:57:46;;;;;;;6.30;5.50;;;;;;;5.12;82.61;96861.25;110152;1241;59716;-71
2023/04/24 03:00:17;;;;;;;5.80;4.80;;;;;;;5.08;84.11;96864.80;110385;1242;59692;-72
2023/04/24 03:02:47;;;;;;;6.30;5.20;;;;;;;5.03;84.91;96867.02;110186;1245;70513;-73
2023/04/24 03:05:17;;;;;;;6.60;5.20;;;;;;;4.98;85.81;96868.48;110200;1245;69506;-73
2023/04/24 03:07:47;;;;;;;;;;;;;;;4.93;87.79;96865.85;110432;1242;69194;-73
2023/04/24 03:10:22;;;;;;;7.00;6.20;;;;;;;4.88;89.21;96866.69;111289;1242;59667;-73
2023/04/24 03:12:54;;;;;;;7.90;6.00;;;;;;;4.84;89.34;96867.96;110811;1240;59756;-73
2023/04/24 03:15:24;;;;;;;7.50;6.00;;;;;;;4.80;89.97;96867.98;110561;1242;71384;-72
2023/04/24 03:17:56;;;;;;;7.20;5.90;;;;;;;4.75;89.87;96869.48;110464;1243;69654;-72
2023/04/24 03:20:25;;;;;;;8.10;6.40;;;;;;;4.71;89.41;96868.89;110381;1242;69323;-72
2023/04/24 03:22:56;;;;;;;;;;;;;;;4.66;91.93;96868.31;110197;1240;59709;-72
2023/04/24 03:25:27;;;;;;;6.50;5.80;;;;;;;4.59;93.47;96869.36;110169;1245;59681;-72
2023/04/24 03:27:59;;;;;;;8.10;6.30;;;;;;;4.55;93.90;96871.02;110190;1240;71398;-72
2023/04/24 03:30:49;;;;;;;8.30;5.80;;;;;;;4.50;94.17;96867.95;110452;1242;69233;-71
2023/04/24 03:33:19;;;;;;;7.70;5.20;;;;;;;4.48;92.68;96867.77;110187;1242;69920;-72
2023/04/24 03:36:01;;;;;;;7.10;5.30;;;;;;;4.47;93.05;96869.35;110327;1242;60038;-73
2023/04/24 03:38:39;;;;;;;7.70;6.30;;;;;;;4.45;92.50;96867.95;110321;1240;59743;-70
2023/04/24 03:41:30;;;;;;;9.70;7.60;;;;;;;4.43;91.61;96873.20;110338;1242;70623;-74
2023/04/24 03:44:17;;;;;;;10.30;7.90;;;;;;;4.42;91.58;96874.29;110339;1242;69817;-72
2023/04/24 03:46:46;;;;;;;10.50;6.90;;;;;;;4.43;93.07;96877.04;110135;1245;69295;-72
2023/04/24 03:49:16;;;;;;;10.60;8.60;;;;;;;4.43;94.79;96876.02;110166;1241;59928;-72
2023/04/24 03:51:47;;;;;;;10.10;7.70;;;;;;;4.43;94.24;96878.75;110160;1244;59738;-72
2023/04/24 03:54:26;;;;;;;8.60;7.20;;;;;;;4.43;93.27;96880.64;110376;1242;70674;-72
2023/04/24 03:56:55;;;;;;;8.40;7.30;;;;;;;4.43;94.05;96880.45;110208;1245;68968;-72
2023/04/24 03:59:25;;;;;;;8.10;7.00;;;;;;;4.43;94.24;96882.52;110163;1244;69118;-72
2023/04/24 04:02:06;;;;;;;8.90;7.70;;;;;;;4.44;94.55;96886.83;110447;1243;60072;-71
2023/04/24 04:04:36;;;;;;;40.30;26.20;;;;;;;4.45;94.46;96888.80;110403;1242;59710;-71
2023/04/24 04:07:07;;;;;;;19.20;11.50;;;;;;;4.53;94.88;96888.17;110155;1241;70630;-71
2023/04/24 04:09:37;;;;;;;19.00;13.10;;;;;;;4.70;93.87;96886.36;110146;1245;69804;-71
2023/04/24 04:12:07;;;;;;;18.50;11.20;;;;;;;4.94;94.83;96886.20;110299;1242;69374;-72
2023/04/24 04:14:38;;;;;;;17.40;11.90;;;;;;;5.12;93.54;96886.52;110206;1244;59681;-72
2023/04/24 04:17:07;;;;;;;24.20;17.40;;;;;;;5.31;92.28;96883.48;111364;1239;59630;-73
2023/04/24 04:19:37;;;;;;;;;;;;;;;5.47;90.98;96882.49;110931;1242;70908;-74
2023/04/24 04:22:07;;;;;;;16.50;11.20;;;;;;;5.58;90.71;96877.30;110223;1243;68220;-73
2023/04/24 04:24:46;;;;;;;18.10;13.10;;;;;;;5.73;90.95;96878.13;110442;1241;68542;-73
2023/04/24 04:27:18;;;;;;;19.00;13.10;;;;;;;5.83;90.35;96880.61;110155;1240;60169;-73
2023/04/24 04:30:04;;;;;;;19.00;13.80;;;;;;;5.95;89.96;96879.20;110478;1242;59677;-71
2023/04/24 04:32:40;;;;;;;26.80;18.80;;;;;;;6.10;90.00;96880.70;110179;1242;70242;-72
2023/04/24 04:35:09;;;;;;;24.50;17.80;;;;;;;6.27;89.89;96882.21;110520;1242;69091;-74
2023/04/24 04:37:39;;;;;;;13.80;11.10;;;;;;;6.42;88.66;96883.51;110275;1241;69301;-72
2023/04/24 04:40:41;;;;;;;16.30;10.90;;;;;;;6.60;87.13;96884.20;110092;1241;59756;-72
2023/04/24 04:43:15;;;;;;;17.20;11.90;;;;;;;6.82;85.93;96881.05;110510;1242;59651;-72
2023/04/24 04:45:51;;;;;;;19.40;13.00;;;;;;;7.03;84.50;96880.83;110088;1241;71783;-74
2023/04/24 04:48:32;;;;;;;17.60;13.30;;;;;;;7.37;83.86;96875.11;110305;1242;69671;-72
2023/04/24 04:51:02;;;;;;;;;;;;;;;7.75;85.28;96875.59;110175;1245;69746;-71
2023/04/24 04:53:32;;;;;;;21.60;15.10;;;;;;;8.11;83.16;96876.86;110483;1241;59743;-72
2023/04/24 04:56:01;;;;;;;26.90;16.10;;;;;;;8.41;80.48;96873.20;110153;1242;59758;-72
2023/04/24 04:58:42;;;;;;;18.10;12.60;;;;;;;8.78;81.34;96876.94;110506;1241;72003;-72
2023/04/24 05:01:13;;;;;;;20.10;14.40;;;;;;;9.10;78.49;96872.22;110150;1242;69236;-73
2023/04/24 05:03:44;;;;;;;19.50;12.20;;;;;;;9.52;78.78;96868.39;110408;1248;69594;-73
2023/04/24 05:06:15;;;;;;;18.00;13.30;;;;;;;10.04;79.91;96869.32;110164;1248;59818;-73
2023/04/24 05:08:45;;;;;;;16.30;12.90;;;;;;;10.46;73.50;96867.40;110192;1244;59702;-73
2023/04/24 05:11:37;;;;;;;18.00;13.80;;;;;;;10.90;70.82;96865.39;110321;1242;71403;-73
2023/04/24 05:14:06;;;;;;;16.60;13.70;;;;;;;11.13;68.66;96858.94;110329;1240;69172;-72
2023/04/24 05:16:40;;;;;;;14.20;11.60;;;;;;;11.43;67.66;96860.04;110300;1242;69644;-74
2023/04/24 05:19:11;;;;;;;13.40;10.40;;;;;;;11.92;69.88;96852.85;110151;1242;59786;-75
2023/04/24 05:21:41;;;;;;;13.90;10.50;;;;;;;12.37;67.36;96850.53;110971;1242;59655;-73
2023/04/24 05:24:11;;;;;;;10.90;9.30;;;;;;;12.74;65.64;96854.02;110652;1241;71389;-74
2023/04/24 05:27:04;;;;;;;9.40;8.40;;;;;;;13.29;66.44;96854.75;110476;1240;67685;-73
2023/04/24 05:29:40;;;;;;;9.00;7.10;;;;;;;13.77;64.21;96849.02;110502;1242;69761;-72
2023/04/24 05:32:09;;;;;;;8.40;7.00;;;;;;;14.06;58.61;96852.23;110471;1242;59740;-73
2023/04/24 05:34:38;;;;;;;8.00;5.80;;;;;;;14.28;57.50;96856.58;110342;1242;59678;-74
2023/04/24 05:37:09;;;;;;;7.50;6.50;;;;;;;14.70;57.60;96853.58;110520;1242;71250;-73
2023/04/24 05:39:39;;;;;;;10.50;8.50;;;;;;;14.90;55.88;96859.47;110146;1245;69222;-73
2023/04/24 05:42:09;;;;;;;7.30;6.50;;;;;;;15.04;55.76;96852.52;110372;1248;69822;-73
2023/04/24 05:44:39;;;;;;;7.90;7.00;;;;;;;15.14;54.59;96847.54;110521;1242;59676;-74
2023/04/24 05:47:07;;;;;;;9.30;8.30;;;;;;;15.30;54.28;96851.70;110550;1240;59645;-75
2023/04/24 05:49:36;;;;;;;9.30;8.40;;;;;;;15.27;54.63;96845.80;110137;1245;71188;-74
2023/04/24 05:52:08;;;;;;;8.90;6.40;;;;;;;15.34;53.71;96841.79;110375;1241;68498;-71
2023/04/24 05:54:37;;;;;;;6.40;5.70;;;;;;;15.55;55.92;96840.17;110368;1241;69895;-73
2023/04/24 05:57:07;;;;;;;6.30;5.50;;;;;;;15.89;52.51;96839.70;110322;1240;59811;-74
2023/04/24 05:59:57;;;;;;;6.60;5.50;;;;;;;16.25;52.67;96839.39;110342;1241;59654;-74
2023/04/24 06:35:29;;;;;;;3.90;3.40;;;;;;;18.38;42.12;96826.02;107294;1270;609367;-74
2023/04/24 06:37:58;;;;;;;;;;;;;;;18.84;41.34;96828.79;109104;1257;221047;-74
2023/04/24 06:40:27;;;;;;;4.60;3.90;;;;;;;18.82;40.29;96829.11;109227;1255;57764;-74
2023/04/24 06:42:58;;;;;;;4.10;3.70;;;;;;;18.99;39.96;96826.69;109351;1253;68833;-74
2023/04/24 06:45:27;;;;;;;5.50;4.30;;;;;;;19.03;39.92;96827.41;109153;1254;68491;-74
2023/04/24 06:47:56;;;;;;;4.50;3.80;;;;;;;18.99;40.56;96823.66;109260;1253;69883;-74
2023/04/24 06:50:25;;;;;;;4.20;3.70;;;;;;;19.14;40.46;96821.18;108979;1254;57702;-73
2023/04/24 06:52:54;;;;;;;;;;;;;;;19.33;39.95;96821.23;109230;1255;57695;-74
2023/04/24 06:55:24;;;;;;;4.40;3.90;;;;;;;19.53;39.48;96818.96;109161;1253;68968;-73
2023/04/24 06:57:53;;;;;;;5.00;3.80;;;;;;;19.67;39.07;96817.15;109169;1254;68621;-73
2023/04/24 07:00:24;;;;;;;5.40;4.10;;;;;;;19.80;38.64;96815.01;109128;1254;69294;-72
2023/04/24 07:02:53;;;;;;;4.90;4.40;;;;;;;19.91;37.91;96816.52;109247;1254;58100;-73
2023/04/24 07:05:23;;;;;;;7.10;4.30;;;;;;;19.72;38.05;96811.35;109227;1255;58545;-73
2023/04/24 07:07:53;;;;;;;5.80;4.80;;;;;;;19.79;38.32;96813.48;109137;1253;69672;-71
2023/04/24 07:10:23;;;;;;;5.00;4.30;;;;;;;19.87;37.55;96809.95;109148;1254;69851;-73
2023/04/24 07:12:58;;;;;;;4.30;3.90;;;;;;;19.97;37.03;96811.88;109118;1254;69306;-72
2023/04/24 07:15:27;;;;;;;4.50;3.90;;;;;;;20.04;36.80;96809.45;109129;1255;58092;-74
2023/04/24 07:17:56;;;;;;;9.70;5.10;;;;;;;20.11;36.90;96807.77;109706;1247;58076;-73
2023/04/24 07:20:26;;;;;;;5.50;4.10;;;;;;;19.95;37.46;96804.55;109815;1246;69797;-73
2023/04/24 07:22:55;;;;;;;5.10;4.30;;;;;;;19.84;37.40;96801.89;109752;1247;69235;-73
2023/04/24 07:25:25;;;;;;;6.20;4.30;;;;;;;20.01;36.94;96804.17;109680;1248;69290;-72
2023/04/24 07:27:54;;;;;;;4.10;3.70;;;;;;;20.12;36.78;96803.41;109683;1247;58067;-74
2023/04/24 07:30:23;;;;;;;5.00;4.50;;;;;;;20.29;36.57;96800.17;109688;1247;58067;-73
2023/04/24 07:32:52;;;;;;;4.60;4.20;;;;;;;20.40;35.67;96802.95;109708;1248;69683;-72
2023/04/24 07:35:21;;;;;;;4.40;4.00;;;;;;;20.64;36.05;96802.61;109687;1247;69229;-72
2023/04/24 07:37:51;;;;;;;;;;;;;;;20.95;35.89;96800.41;109709;1248;69113;-74
2023/04/24 07:40:21;;;;;;;5.40;4.10;;;;;;;21.04;35.20;96798.97;109701;1247;58076;-73
2023/04/24 07:42:50;;;;;;;6.80;4.40;;;;;;;21.07;34.91;96799.77;109849;1246;58078;-74
2023/04/24 07:45:20;;;;;;;4.50;3.70;;;;;;;21.23;34.62;96796.78;109843;1248;68943;-73
2023/04/24 07:47:50;;;;;;;4.60;4.20;;;;;;;21.34;34.37;96797.11;109830;1247;68538;-73
2023/04/24 07:50:20;;;;;;;4.80;4.10;;;;;;;21.33;34.77;96798.19;109785;1245;69372;-73
2023/04/24 07:52:48;;;;;;;4.40;4.00;;;;;;;21.35;34.01;96799.30;109665;1248;58102;-73
2023/04/24 07:55:17;;;;;;;4.70;4.10;;;;;;;21.16;35.03;96798.77;109835;1248;58063;-74
2023/04/24 07:57:49;;;;;;;5.30;3.90;;;;;;;21.00;34.94;96797.54;109846;1248;69008;-73
2023/04/24 08:00:19;;;;;;;5.10;4.40;;;;;;;20.87;33.66;96794.16;109832;1247;69398;-74
2023/04/24 08:02:48;;;;;;;4.40;4.00;;;;;;;20.92;34.73;96790.36;109827;1247;68520;-74
2023/04/24 08:05:17;;;;;;;5.20;3.80;;;;;;;21.20;34.89;96786.83;109831;1248;58150;-74
2023/04/24 08:07:48;;;;;;;6.30;4.10;;;;;;;21.57;32.97;96788.17;109826;1247;58147;-74
2023/04/24 08:10:17;;;;;;;3.90;3.50;;;;;;;21.73;32.59;96782.02;109808;1246;69758;-74
2023/04/24 08:12:46;;;;;;;5.30;4.10;;;;;;;21.79;32.50;96782.36;109815;1247;69224;-74
2023/04/24 08:15:14;;;;;;;4.60;4.10;;;;;;;21.70;32.55;96781.61;109822;1247;68610;-72
2023/04/24 08:17:44;;;;;;;5.30;4.40;;;;;;;21.76;32.73;96780.33;109663;1247;58107;-73
2023/04/24 08:20:13;;;;;;;5.90;4.60;;;;;;;21.33;32.56;96782.86;109849;1247;58144;-74
2023/04/24 08:22:43;;;;;;;4.80;4.30;;;;;;;20.94;33.11;96778.08;109682;1247;69861;-73
2023/04/24 08:25:12;;;;;;;4.40;3.90;;;;;;;20.69;33.74;96777.94;109825;1247;69821;-73
2023/04/24 08:27:41;;;;;;;5.20;4.00;;;;;;;21.14;34.15;96773.55;109675;1247;67614;-73
2023/04/24 08:30:10;;;;;;;5.10;4.50;;;;;;;21.25;34.17;96769.95;109839;1247;58096;-74
2023/04/24 08:32:39;;;;;;;;;;;;;;;21.76;33.44;96768.17;109722;1247;58150;-72
2023/04/24 08:35:09;;;;;;;5.60;4.80;;;;;;;21.98;32.29;96771.88;109734;1247;69735;-73
2023/04/24 08:37:38;;;;;;;;;;;;;;;22.12;31.89;96772.41;109897;1247;69836;-72
2023/04/24 08:40:14;;;;;;;5.30;4.30;;;;;;;21.64;32.30;96764.60;109789;1246;67538;-72
2023/04/24 08:42:44;;;;;;;5.20;4.40;;;;;;;21.19;33.40;96764.17;109838;1248;58096;-72
2023/04/24 08:45:13;;;;;;;4.90;3.90;;;;;;;21.86;32.98;96762.24;109701;1247;58122;-73
2023/04/24 08:47:43;;;;;;;4.80;3.80;;;;;;;22.46;31.59;96766.16;109834;1245;69036;-73
2023/04/24 08:50:13;;;;;;;5.60;4.20;;;;;;;22.75;30.66;96766.64;109781;1247;69055;-73
2023/04/24 08:52:42;;;;;;;4.80;4.40;;;;;;;22.82;30.71;96758.58;109810;1245;69925;-73
2023/04/24 08:55:11;;;;;;;5.20;3.90;;;;;;;23.11;30.77;96753.59;109809;1247;58137;-74
2023/04/24 08:57:41;;;;;;;6.10;4.30;;;;;;;23.16;30.11;96755.65;109845;1248;58081;-74
2023/04/24 09:00:11;;;;;;;5.70;4.60;;;;;;;22.92;30.37;96753.14;109871;1247;69650;-73
2023/04/24 09:02:43;;;;;;;4.80;4.20;;;;;;;23.18;30.77;96749.30;109812;1248;69262;-74
2023/04/24 09:05:13;;;;;;;4.80;3.90;;;;;;;23.60;30.08;96743.64;109849;1247;68520;-74
2023/04/24 09:07:46;;;;;;;5.40;4.50;;;;;;;23.77;29.58;96745.52;109811;1251;58099;-73
2023/04/24 09:10:15;;;;;;;5.90;4.60;;;;;;;23.66;29.23;96740.52;109847;1247;58021;-75
2023/04/24 09:12:46;;;;;;;5.10;4.10;;;;;;;23.55;29.14;96734.70;109691;1248;69760;-74
2023/04/24 09:15:15;;;;;;;5.70;4.10;;;;;;;23.72;29.31;96734.33;109830;1246;69115;-73
2023/04/24 09:17:44;;;;;;;4.40;3.80;;;;;;;24.07;29.51;96731.88;109791;1247;68322;-73
2023/04/24 09:20:14;;;;;;;6.00;4.10;;;;;;;24.11;29.07;96733.19;109827;1248;58129;-73
2023/04/24 09:22:45;;;;;;;4.90;4.30;;;;;;;24.02;29.96;96734.29;109685;1250;58040;-73
2023/04/24 09:25:14;;;;;;;4.50;4.10;;;;;;;24.33;29.00;96726.06;109833;1246;70395;-73
2023/04/24 09:27:45;;;;;;;5.10;4.30;;;;;;;24.50;28.21;96720.64;109843;1248;68316;-73
2023/04/24 09:30:22;;;;;;;5.80;4.50;;;;;;;25.15;27.97;96720.14;109854;1247;69303;-74
2023/04/24 09:33:10;;;;;;;5.00;4.10;;;;;;;25.50;27.05;96716.23;109844;1247;58118;-74
2023/04/24 09:35:50;;;;;;;4.60;3.90;;;;;;;25.34;27.57;96714.63;109846;1247;58115;-73
2023/04/24 09:38:37;;;;;;;4.70;4.30;;;;;;;25.74;26.94;96714.77;109796;1247;69768;-74
2023/04/24 09:41:08;;;;;;;4.60;4.20;;;;;;;25.91;27.40;96707.95;109930;1248;69077;-74
2023/04/24 09:43:40;;;;;;;5.30;4.00;;;;;;;26.22;26.41;96709.77;110127;1246;69869;-73
2023/04/24 09:46:09;;;;;;;5.40;3.80;;;;;;;26.10;25.91;96696.98;109939;1247;58089;-75
2023/04/24 09:48:38;;;;;;;;;;;;;;;25.81;25.98;96699.86;109902;1244;58108;-75
2023/04/24 09:51:10;;;;;;;4.30;3.90;;;;;;;25.76;26.49;96699.34;110085;1246;69012;-75
2023/04/24 09:53:39;;;;;;;5.10;3.90;;;;;;;25.79;26.33;96695.52;109951;1244;68488;-76
2023/04/24 09:56:12;;;;;;;4.40;4.00;;;;;;;25.84;25.46;96691.54;109812;1248;68551;-75
2023/04/24 09:58:41;;;;;;;4.50;4.00;;;;;;;25.38;26.27;96684.62;109945;1247;58127;-75
2023/04/24 10:01:10;;;;;;;4.70;4.10;;;;;;;25.50;26.16;96687.17;109852;1248;58094;-74
2023/04/24 10:03:42;;;;;;;5.10;4.20;;;;;;;25.71;26.60;96689.10;110002;1247;69837;-74
2023/04/24 10:06:12;;;;;;;4.10;3.60;;;;;;;24.84;26.35;96681.00;109889;1247;69817;-76
2023/04/24 10:08:43;;;;;;;4.60;4.10;;;;;;;24.73;26.58;96678.34;109823;1247;69867;-75
2023/04/24 10:11:13;;;;;;;3.90;3.50;;;;;;;25.60;25.85;96675.00;109899;1247;58063;-76
2023/04/24 10:13:43;;;;;;;4.60;4.00;;;;;;;25.69;25.17;96675.67;109929;1247;58128;-75
2023/04/24 10:16:12;;;;;;;5.80;3.90;;;;;;;25.75;25.34;96667.23;109917;1244;69758;-76
2023/04/24 10:18:42;;;;;;;5.20;4.20;;;;;;;26.01;25.39;96665.72;110021;1246;69267;-76
2023/04/24 10:21:12;;;;;;;4.70;4.20;;;;;;;25.89;25.54;96660.73;109928;1246;69182;-75
2023/04/24 10:23:42;;;;;;;4.40;3.60;;;;;;;26.18;24.55;96659.35;109918;1248;58547;-76
2023/04/24 10:26:17;;;;;;;5.50;4.50;;;;;;;25.72;23.68;96654.77;109966;1244;58131;-76
2023/04/24 10:28:47;;;;;;;5.40;4.00;;;;;;;23.77;25.44;96651.42;109970;1247;69850;-75
2023/04/24 10:31:17;;;;;;;3.80;3.40;;;;;;;24.45;25.74;96647.48;109902;1244;68568;-76
2023/04/24 10:33:47;;;;;;;4.70;3.90;;;;;;;24.99;25.24;96644.30;109955;1246;68533;-76
2023/04/24 10:36:18;;;;;;;5.20;4.20;;;;;;;25.13;26.50;96642.81;109905;1248;58095;-75
2023/04/24 10:38:49;;;;;;;5.00;3.70;;;;;;;25.33;26.19;96641.76;109928;1247;58140;-74
2023/04/24 10:41:23;;;;;;;4.10;3.70;;;;;;;24.87;27.40;96636.20;109853;1247;69398;-75
2023/04/24 10:44:12;;;;;;;5.90;4.20;;;;;;;26.27;25.76;96640.30;109864;1247;68495;-74
2023/04/24 10:46:48;;;;;;;4.40;3.80;;;;;;;25.47;24.05;96638.28;109830;1247;69572;-74
2023/04/24 10:49:17;;;;;;;4.40;3.50;;;;;;;25.35;23.94;96635.06;109771;1246;58963;-74
2023/04/24 10:51:49;;;;;;;4.00;3.60;;;;;;;24.95;25.37;96629.38;109835;1248;58867;-73
2023/04/24 10:54:29;;;;;;;4.40;4.00;;;;;;;25.52;25.90;96625.81;109847;1246;69834;-73
2023/04/24 10:57:23;;;;;;;4.20;3.80;;;;;;;26.02;25.85;96624.05;109791;1247;69765;-73
2023/04/24 11:00:13;;;;;;;6.10;4.10;;;;;;;26.38;24.85;96621.36;109781;1247;69238;-73
2023/04/24 11:02:48;;;;;;;4.60;4.20;;;;;;;26.53;24.81;96619.58;109821;1248;58899;-74
2023/04/24 11:05:20;;;;;;;5.70;4.20;;;;;;;26.25;24.89;96617.00;109867;1247;58889;-74
2023/04/24 11:08:26;;;;;;;5.10;3.80;;;;;;;26.00;24.24;96614.56;109867;1247;69915;-73
2023/04/24 11:11:12;;;;;;;4.90;3.70;;;;;;;25.74;24.05;96613.05;109855;1246;69838;-73
2023/04/24 11:13:53;;;;;;;4.50;4.10;;;;;;;25.87;23.45;96604.35;109857;1247;68418;-74
2023/04/24 11:16:34;;;;;;;5.30;4.10;;;;;;;26.11;23.76;96601.59;109836;1247;58867;-74
2023/04/24 11:19:23;;;;;;;5.80;4.20;;;;;;;26.64;23.29;96595.08;109920;1247;58944;-73
2023/04/24 11:22:13;;;;;;;4.50;4.20;;;;;;;26.11;23.64;96602.02;109882;1248;69067;-73
2023/04/24 11:24:42;;;;;;;4.50;4.00;;;;;;;26.10;23.84;96598.85;109874;1245;69253;-74
2023/04/24 11:27:19;;;;;;;4.70;3.80;;;;;;;25.74;23.17;96597.73;109799;1245;69893;-74
2023/04/24 11:29:57;;;;;;;5.70;4.20;;;;;;;25.07;24.50;96591.56;109928;1244;58923;-73
2023/04/24 11:32:27;;;;;;;5.00;3.90;;;;;;;25.34;24.46;96595.04;109889;1245;58885;-74
2023/04/24 11:35:06;;;;;;;4.20;3.80;;;;;;;25.23;25.31;96585.95;109826;1246;70427;-74
2023/04/24 11:37:42;;;;;;;7.70;4.00;;;;;;;25.66;25.59;96577.75;109859;1248;69300;-72
2023/04/24 11:40:13;;;;;;;5.70;3.90;;;;;;;26.01;25.36;96577.57;109817;1244;69250;-74
2023/04/24 11:42:44;;;;;;;5.50;4.20;;;;;;;25.86;25.04;96569.95;109887;1246;58897;-73
2023/04/24 11:45:19;;;;;;;4.30;3.90;;;;;;;26.01;24.24;96569.48;109866;1247;58927;-73
2023/04/24 11:47:48;;;;;;;4.80;4.30;;;;;;;26.26;23.45;96569.34;109880;1244;70089;-73
2023/04/24 11:50:19;;;;;;;5.10;4.30;;;;;;;26.52;23.13;96571.17;109918;1249;68453;-73
2023/04/24 11:52:49;;;;;;;5.40;4.20;;;;;;;26.10;23.56;96567.44;109922;1248;68263;-73
2023/04/24 11:55:18;;;;;;;4.70;4.30;;;;;;;25.87;23.44;96567.27;109907;1248;58883;-73
2023/04/24 11:57:49;;;;;;;;;;;;;;;25.16;23.05;96564.02;109830;1248;58832;-73
2023/04/24 12:00:20;;;;;;;4.20;3.80;;;;;;;24.86;23.40;96555.75;109825;1244;71151;-73
2023/04/24 12:02:50;;;;;;;4.80;4.00;;;;;;;24.80;23.69;96551.89;109939;1246;69669;-73
2023/04/24 12:05:26;;;;;;;5.60;4.10;;;;;;;24.57;23.65;96551.38;109934;1247;69880;-73
2023/04/24 12:07:56;;;;;;;5.10;4.10;;;;;;;24.06;24.27;96552.71;109846;1244;59330;-72
2023/04/24 12:10:26;;;;;;;4.10;3.60;;;;;;;24.05;24.33;96550.05;109783;1247;58940;-73
2023/04/24 12:12:57;;;;;;;4.70;4.20;;;;;;;23.78;25.05;96546.55;109842;1248;70414;-72
2023/04/24 12:15:27;;;;;;;4.60;4.20;;;;;;;23.79;24.63;96540.34;109663;1246;69816;-72
2023/04/24 12:17:56;;;;;;;4.20;3.80;;;;;;;23.99;24.26;96539.82;109756;1247;69636;-72
2023/04/24 12:20:31;;;;;;;4.20;3.80;;;;;;;23.80;24.48;96534.75;109838;1247;58866;-72
2023/04/24 12:23:01;;;;;;;5.20;4.60;;;;;;;23.98;24.65;96535.81;109844;1247;58902;-71
2023/04/24 12:25:32;;;;;;;4.50;4.00;;;;;;;23.50;25.70;96530.05;109839;1246;70544;-73
2023/04/24 12:28:04;;;;;;;4.70;4.00;;;;;;;23.72;26.59;96527.45;109795;1248;69072;-74